Time;durP1;ratioP1;P1;durP2;ratioP2;P2;SDS_P1;SDS_P2;PMS_P1;PMS_P2;Temp;Humidity;BMP_temperature;BMP_pressure;BME280_temperature;BME280_humidity;BME280_pressure;Samples;Min_cycle;Max_cycle;Signal;HPM_P1;HPM_P2
2022/07/28 00:00:04;;;;;;;4.50;3.50;;;;;;;30.17;30.33;100588.03;5052395;28;20763;-67
2022/07/28 00:02:30;;;;;;;4.80;3.65;;;;;;;30.17;30.42;100588.03;5051233;28;20394;-68
2022/07/28 00:04:56;;;;;;;5.33;3.50;;;;;;;30.14;30.45;100585.09;5050125;28;20385;-68
2022/07/28 00:07:21;;;;;;;4.45;3.55;;;;;;;30.14;30.33;100599.56;5050499;28;20481;-68
2022/07/28 00:12:09;;;;;;;5.60;3.60;;;;;;;30.13;30.62;100600.69;5052291;27;20413;-67
2022/07/28 00:14:34;;;;;;;4.57;3.57;;;;;;;30.11;30.86;100606.47;5044924;28;20455;-67
2022/07/28 00:19:25;;;;;;;5.68;3.60;;;;;;;30.13;30.87;100608.09;5068293;27;20408;-68
2022/07/28 00:21:51;;;;;;;4.77;4.00;;;;;;;30.13;31.12;100619.84;5087876;28;20483;-65
2022/07/28 00:24:16;;;;;;;6.07;3.87;;;;;;;30.14;31.19;100615.97;5069594;28;20391;-67
2022/07/28 00:26:42;;;;;;;5.77;4.20;;;;;;;30.11;31.59;100611.13;5072465;28;20761;-67
2022/07/28 00:29:07;;;;;;;7.37;4.10;;;;;;;30.12;31.85;100620.94;5072976;28;20380;-66
2022/07/28 00:31:33;;;;;;;7.40;4.03;;;;;;;30.14;32.13;100623.38;5075000;28;20384;-66
2022/07/28 00:33:58;;;;;;;6.03;4.35;;;;;;;30.12;32.26;100623.69;5072002;28;20386;-68
2022/07/28 00:36:24;;;;;;;6.67;4.50;;;;;;;30.08;32.72;100631.66;5070799;28;20380;-68
2022/07/28 00:38:49;;;;;;;6.77;4.60;;;;;;;30.02;32.89;100643.84;5068899;28;20416;-67
2022/07/28 00:41:18;;;;;;;4.90;4.50;;;;;;;29.96;33.11;100627.81;5068461;28;20383;-67
2022/07/28 00:43:48;;;;;;;7.95;4.53;;;;;;;29.98;33.33;100636.53;5065698;28;20399;-67
2022/07/28 00:46:16;;;;;;;4.97;4.30;;;;;;;29.87;33.47;100644.94;5068623;28;20489;-67
2022/07/28 00:48:44;;;;;;;5.10;4.60;;;;;;;29.78;33.81;100635.78;5072600;28;20374;-67
2022/07/28 00:51:10;;;;;;;5.18;4.68;;;;;;;29.68;34.09;100642.22;5066847;28;20380;-68
2022/07/28 00:53:37;;;;;;;5.38;4.88;;;;;;;29.69;34.88;100640.31;5071442;28;20368;-68
2022/07/28 00:56:04;;;;;;;6.38;4.90;;;;;;;29.59;35.75;100654.97;5069805;28;20471;-68
2022/07/28 00:58:29;;;;;;;5.90;4.82;;;;;;;29.43;36.45;100659.06;5068154;28;20414;-66
2022/07/28 01:00:55;;;;;;;6.07;5.05;;;;;;;29.21;37.01;100659.66;5076818;28;20420;-67
2022/07/28 01:03:22;;;;;;;6.87;5.40;;;;;;;29.07;37.74;100668.59;5084837;28;20382;-67
2022/07/28 01:06:02;;;;;;;7.15;5.22;;;;;;;28.90;38.41;100674.56;5083534;28;20404;-67
2022/07/28 01:08:50;;;;;;;5.88;5.35;;;;;;;28.77;39.30;100683.47;5077154;28;20843;-67
2022/07/28 01:13:03;;;;;;;6.07;5.47;;;;;;;28.79;39.79;100686.69;5045784;28;20405;-68
2022/07/28 01:15:43;;;;;;;6.53;5.80;;;;;;;28.78;40.21;100699.53;5034349;28;20422;-68
2022/07/28 01:18:19;;;;;;;6.82;5.65;;;;;;;28.71;40.92;100695.56;5027070;28;20383;-67
2022/07/28 01:20:51;;;;;;;7.20;5.75;;;;;;;28.71;40.96;100701.81;5026729;28;20951;-66
2022/07/28 01:23:32;;;;;;;6.22;5.72;;;;;;;28.65;41.68;100700.25;5026827;28;20394;-67
2022/07/28 01:26:33;;;;;;;6.38;5.70;;;;;;;28.56;42.25;100696.56;5026531;28;20394;-67
2022/07/28 01:29:02;;;;;;;6.13;5.53;;;;;;;28.45;42.54;100701.28;5026818;28;20766;-67
2022/07/28 01:31:36;;;;;;;6.13;5.53;;;;;;;28.42;42.36;100710.84;5026728;28;20410;-68
2022/07/28 01:34:09;;;;;;;5.97;5.30;;;;;;;28.47;42.52;100717.34;5025490;28;20461;-68
2022/07/28 01:36:43;;;;;;;6.30;5.28;;;;;;;28.37;42.66;100724.53;5026500;28;20400;-67
2022/07/28 01:39:10;;;;;;;6.72;5.43;;;;;;;28.45;42.50;100725.84;5026785;28;20483;-68
2022/07/28 01:41:53;;;;;;;5.82;5.30;;;;;;;28.42;42.59;100723.69;5099916;27;20406;-67
2022/07/28 01:44:23;;;;;;;6.68;5.50;;;;;;;28.38;42.80;100725.38;5087132;28;20398;-67
2022/07/28 01:46:51;;;;;;;5.70;5.20;;;;;;;28.36;42.67;100731.09;5081955;28;20479;-67
2022/07/28 01:49:20;;;;;;;6.20;5.60;;;;;;;28.29;42.56;100733.38;5077851;28;20432;-68
2022/07/28 01:51:47;;;;;;;6.15;5.50;;;;;;;28.22;42.44;100724.72;5072663;28;20393;-68
2022/07/28 01:54:15;;;;;;;6.05;5.45;;;;;;;28.28;42.33;100739.09;5086378;28;20382;-67
2022/07/28 01:56:42;;;;;;;6.50;5.50;;;;;;;28.25;42.57;100739.66;5085252;28;20497;-67
2022/07/28 01:59:10;;;;;;;5.90;5.30;;;;;;;28.20;42.64;100737.81;5074376;28;20435;-68
2022/07/28 02:01:41;;;;;;;6.07;5.22;;;;;;;28.21;42.26;100742.16;5085535;28;20924;-68
2022/07/28 02:05:01;;;;;;;5.60;5.10;;;;;;;28.25;42.34;100731.50;5079029;27;20407;-67
2022/07/28 02:07:28;;;;;;;6.75;5.38;;;;;;;28.25;42.23;100740.47;5066234;28;20412;-67
2022/07/28 02:09:57;;;;;;;6.72;5.50;;;;;;;28.24;42.35;100746.25;5066824;28;20450;-68
2022/07/28 02:12:24;;;;;;;5.47;4.97;;;;;;;28.26;42.16;100741.31;5066235;28;20437;-68
2022/07/28 02:14:51;;;;;;;6.70;5.40;;;;;;;28.23;42.41;100742.69;5054027;28;20410;-67
2022/07/28 02:17:21;;;;;;;5.70;5.10;;;;;;;28.24;42.61;100738.88;5066776;28;20434;-68
2022/07/28 02:19:47;;;;;;;5.90;5.00;;;;;;;28.25;42.57;100742.41;5065321;28;20384;-68
2022/07/28 02:22:15;;;;;;;6.03;5.03;;;;;;;28.16;42.93;100734.84;5067144;28;20816;-68
2022/07/28 02:24:43;;;;;;;6.00;5.07;;;;;;;28.14;43.45;100741.69;5066222;28;20465;-69
2022/07/28 02:27:24;;;;;;;6.03;4.70;;;;;;;28.10;43.56;100737.91;5065603;28;20399;-67
2022/07/28 02:29:56;;;;;;;5.25;4.75;;;;;;;28.10;43.37;100744.16;5065974;28;20442;-68
2022/07/28 02:32:48;;;;;;;7.38;5.40;;;;;;;28.11;43.39;100743.09;5061567;28;20428;-68
2022/07/28 02:35:41;;;;;;;6.45;5.28;;;;;;;28.17;43.53;100735.66;5064628;28;20391;-67
2022/07/28 02:38:12;;;;;;;6.22;5.07;;;;;;;28.15;43.33;100735.16;5065559;28;20390;-68
2022/07/28 02:40:39;;;;;;;7.32;5.22;;;;;;;28.10;43.68;100737.91;5065135;28;20769;-68
2022/07/28 02:43:13;;;;;;;5.97;5.38;;;;;;;28.05;43.83;100735.22;5065444;28;20458;-68
2022/07/28 02:45:41;;;;;;;6.68;5.40;;;;;;;28.03;44.01;100732.78;5080645;28;20388;-67
2022/07/28 02:48:12;;;;;;;7.00;5.03;;;;;;;27.95;44.35;100738.88;5065570;28;20888;-67
2022/07/28 02:51:58;;;;;;;6.00;5.40;;;;;;;27.91;44.60;100732.34;5045965;28;20406;-67
2022/07/28 02:54:26;;;;;;;6.10;5.40;;;;;;;27.90;44.59;100734.28;5044557;28;20405;-68
2022/07/28 02:56:54;;;;;;;5.38;4.88;;;;;;;27.88;44.48;100732.91;5043348;28;20427;-68
2022/07/28 03:01:31;;;;;;;7.45;5.20;;;;;;;27.82;45.04;100738.41;5031868;28;20407;-69
2022/07/28 03:05:00;;;;;;;5.97;5.25;;;;;;;27.87;44.72;100742.97;5032274;28;20406;-68
2022/07/28 03:07:33;;;;;;;5.68;4.88;;;;;;;27.96;44.56;100738.56;5025974;28;20926;-70
2022/07/28 03:10:03;;;;;;;5.60;5.10;;;;;;;28.03;44.71;100741.78;5026347;28;20469;-68
2022/07/28 03:12:28;;;;;;;5.93;5.32;;;;;;;28.03;44.53;100735.50;5025914;28;20901;-67
2022/07/28 03:14:54;;;;;;;7.20;4.97;;;;;;;28.08;44.62;100740.91;5026009;28;20387;-67
2022/07/28 03:17:20;;;;;;;5.80;5.20;;;;;;;28.10;44.36;100736.00;5019649;28;20897;-66
2022/07/28 03:19:45;;;;;;;6.68;5.28;;;;;;;28.09;44.32;100737.09;5026166;28;20449;-67
2022/07/28 03:22:11;;;;;;;5.63;5.03;;;;;;;27.99;44.45;100739.91;5026144;28;21001;-67
2022/07/28 03:24:49;;;;;;;5.40;4.90;;;;;;;27.96;44.31;100745.94;5025705;28;21004;-68
2022/07/28 03:27:33;;;;;;;5.47;5.00;;;;;;;27.97;44.07;100745.66;5040070;28;20411;-65
2022/07/28 03:30:13;;;;;;;7.35;5.30;;;;;;;28.01;44.26;100745.88;5025856;28;20386;-67
2022/07/28 03:32:44;;;;;;;5.85;5.22;;;;;;;28.08;44.32;100753.75;5025380;28;20426;-67
2022/07/28 03:35:12;;;;;;;5.75;5.10;;;;;;;28.05;44.07;100746.13;5025994;28;20437;-67
2022/07/28 03:38:04;;;;;;;6.80;5.10;;;;;;;28.01;44.11;100746.69;5025634;28;20388;-68
2022/07/28 03:42:36;;;;;;;7.63;5.53;;;;;;;28.01;44.11;100751.34;5052884;28;20404;-66
2022/07/28 03:45:03;;;;;;;7.13;5.20;;;;;;;27.99;44.47;100756.28;5043858;28;20429;-67
2022/07/28 03:47:28;;;;;;;8.15;5.38;;;;;;;27.95;44.21;100764.19;5046014;28;20887;-67
2022/07/28 03:49:54;;;;;;;6.77;5.53;;;;;;;28.02;44.57;100770.13;5046149;28;20382;-67
2022/07/28 03:52:37;;;;;;;6.10;5.35;;;;;;;28.09;43.98;100782.59;5050872;27;20398;-67
2022/07/28 03:55:26;;;;;;;6.95;5.60;;;;;;;28.19;44.26;100787.97;5062933;27;2063868;-67
2022/07/28 03:57:51;;;;;;;10.07;5.90;;;;;;;28.17;43.86;100790.19;5127244;28;20841;-68
2022/07/28 04:00:19;;;;;;;8.00;5.50;;;;;;;28.12;44.00;100782.84;5125890;28;20381;-71
2022/07/28 04:02:45;;;;;;;6.68;5.25;;;;;;;28.17;44.06;100798.34;5108350;28;20387;-67
2022/07/28 04:05:16;;;;;;;7.95;5.30;;;;;;;28.18;44.54;100808.13;5126909;28;20371;-67
2022/07/28 04:07:42;;;;;;;9.10;5.35;;;;;;;28.14;45.12;100818.00;5125534;28;20900;-68
2022/07/28 04:10:10;;;;;;;7.78;5.28;;;;;;;28.02;45.13;100813.72;5127020;28;20788;-68
2022/07/28 04:12:48;;;;;;;7.57;5.88;;;;;;;27.91;44.98;100806.75;5126404;28;20412;-66
2022/07/28 04:15:14;;;;;;;5.78;4.97;;;;;;;27.87;45.46;100819.25;5126921;28;20452;-68
2022/07/28 04:17:41;;;;;;;7.50;5.55;;;;;;;27.87;45.27;100827.44;5123665;28;20378;-67
2022/07/28 04:20:07;;;;;;;6.90;5.38;;;;;;;27.85;45.30;100827.72;5126801;28;20378;-67
2022/07/28 04:22:33;;;;;;;6.05;5.40;;;;;;;27.90;45.48;100836.97;5126491;28;20414;-68
2022/07/28 04:25:02;;;;;;;8.20;5.00;;;;;;;27.84;44.55;100837.00;5126302;28;20437;-66
2022/07/28 04:27:28;;;;;;;11.18;4.38;;;;;;;27.75;43.71;100838.69;5108975;28;20763;-66
2022/07/28 04:29:53;;;;;;;10.77;8.00;;;;;;;27.81;44.80;100840.28;5127194;28;20457;-65
2022/07/28 04:32:19;;;;;;;10.50;7.87;;;;;;;27.64;46.66;100842.56;5125269;28;20390;-66
2022/07/28 04:34:45;;;;;;;12.00;9.07;;;;;;;27.42;47.67;100835.63;5126051;28;20489;-66
2022/07/28 04:37:11;;;;;;;9.90;8.27;;;;;;;27.42;47.90;100829.34;5126949;28;20893;-66
2022/07/28 04:39:37;;;;;;;11.45;8.35;;;;;;;27.46;47.67;100833.16;5125199;28;20371;-66
2022/07/28 04:42:59;;;;;;;9.07;7.63;;;;;;;27.49;47.77;100835.28;5050371;28;20409;-65
2022/07/28 04:45:24;;;;;;;9.87;7.73;;;;;;;27.51;47.46;100829.56;5039492;28;20473;-65
2022/07/28 04:47:50;;;;;;;9.03;7.90;;;;;;;27.44;47.77;100827.97;5039793;28;20802;-65
2022/07/28 04:50:19;;;;;;;10.52;7.82;;;;;;;27.48;47.36;100838.28;5041503;28;20425;-65
2022/07/28 04:52:48;;;;;;;10.60;7.88;;;;;;;27.43;47.77;100833.72;5037312;28;20857;-64
2022/07/28 04:55:13;;;;;;;8.57;7.40;;;;;;;27.22;47.96;100831.03;5041278;28;20378;-64
2022/07/28 04:59:34;;;;;;;9.00;7.00;;;;;;;27.33;47.76;100840.00;5086495;27;20520;-65
2022/07/28 05:03:52;;;;;;;8.38;6.00;;;;;;;27.46;47.75;100831.25;5056216;27;20923;-65
2022/07/28 05:06:18;;;;;;;8.63;5.70;;;;;;;27.41;47.51;100828.53;5067074;28;20396;-65
2022/07/28 05:08:43;;;;;;;6.10;5.50;;;;;;;27.43;46.85;100837.22;5043288;28;20416;-65
2022/07/28 05:11:09;;;;;;;9.35;6.13;;;;;;;27.44;47.12;100832.59;5045700;28;20389;-66
2022/07/28 05:13:34;;;;;;;8.20;6.15;;;;;;;27.48;46.79;100850.03;5046012;28;20440;-65
2022/07/28 05:16:01;;;;;;;7.97;5.93;;;;;;;27.44;47.28;100844.31;5046053;28;20500;-65
2022/07/28 05:18:27;;;;;;;11.18;8.85;;;;;;;27.43;47.42;100847.31;5045987;28;20424;-66
2022/07/28 05:22:52;;;;;;;9.02;7.18;;;;;;;27.35;47.61;100847.88;5037348;28;20920;-66
2022/07/28 05:25:23;;;;;;;8.90;6.77;;;;;;;27.38;47.88;100864.47;5022568;28;20414;-66
2022/07/28 05:27:49;;;;;;;8.50;6.40;;;;;;;27.44;47.74;100866.09;5023318;28;20769;-65
2022/07/28 05:30:16;;;;;;;8.02;5.85;;;;;;;27.51;47.46;100873.13;5022643;28;20387;-65
2022/07/28 05:32:43;;;;;;;6.20;5.47;;;;;;;27.45;47.35;100870.44;5024238;28;20426;-65
2022/07/28 05:35:10;;;;;;;9.40;5.73;;;;;;;27.52;47.31;100875.59;5021626;28;20395;-65
2022/07/28 05:37:36;;;;;;;7.53;5.32;;;;;;;27.49;47.53;100876.13;5019402;28;20387;-66
2022/07/28 05:40:08;;;;;;;5.90;5.30;;;;;;;27.54;47.48;100876.13;5022171;28;20769;-66
2022/07/28 05:42:36;;;;;;;7.32;5.93;;;;;;;27.50;47.47;100879.69;5021114;28;20469;-65
2022/07/28 05:45:07;;;;;;;6.55;5.63;;;;;;;27.35;48.33;100872.38;5021572;28;20830;-65
2022/07/28 05:47:45;;;;;;;7.85;6.32;;;;;;;27.36;48.13;100877.56;5022819;28;20431;-65
2022/07/28 05:50:11;;;;;;;7.07;6.13;;;;;;;27.35;48.49;100883.28;5022492;28;20898;-66
2022/07/28 05:52:37;;;;;;;9.18;6.45;;;;;;;27.27;48.66;100882.75;5020630;28;20399;-66
2022/07/28 05:55:04;;;;;;;9.47;6.70;;;;;;;27.40;48.23;100880.53;5023876;28;20406;-65
2022/07/28 05:57:29;;;;;;;8.38;6.72;;;;;;;27.54;48.47;100894.38;5012481;28;20437;-66
2022/07/28 05:59:55;;;;;;;8.80;6.60;;;;;;;27.58;48.42;100896.25;5015739;28;20415;-65
2022/07/28 06:02:20;;;;;;;10.77;6.70;;;;;;;27.56;48.36;100900.34;5020449;28;20424;-65
2022/07/28 06:04:46;;;;;;;8.23;6.37;;;;;;;27.60;47.77;100907.69;5016455;28;20795;-65
2022/07/28 06:07:11;;;;;;;12.90;6.60;;;;;;;27.72;47.41;100910.06;5019837;28;20489;-65
2022/07/28 06:09:37;;;;;;;9.02;5.93;;;;;;;27.91;46.67;100913.00;5017186;28;20396;-65
2022/07/28 06:12:03;;;;;;;7.90;5.70;;;;;;;28.07;46.11;100913.69;5014338;28;20902;-65
2022/07/28 06:14:29;;;;;;;10.93;6.03;;;;;;;28.52;44.69;100916.34;5021733;28;20380;-66
2022/07/28 06:16:54;;;;;;;7.80;6.00;;;;;;;28.86;43.77;100912.81;5010070;28;20388;-64
2022/07/28 06:19:20;;;;;;;12.67;7.10;;;;;;;28.93;43.70;100916.00;5025145;28;20927;-66
2022/07/28 06:21:46;;;;;;;10.60;7.70;;;;;;;28.64;44.18;100918.75;5036451;28;20761;-67
2022/07/28 06:24:12;;;;;;;10.10;7.77;;;;;;;28.55;44.75;100918.56;5044349;28;20491;-66
2022/07/28 06:26:38;;;;;;;12.48;8.55;;;;;;;28.60;44.88;100921.25;5045236;28;20432;-65
2022/07/28 06:29:04;;;;;;;13.20;8.35;;;;;;;28.80;44.23;100917.50;5044879;28;20382;-66
2022/07/28 06:31:30;;;;;;;10.48;8.32;;;;;;;28.78;44.18;100925.16;5045158;28;20393;-66
2022/07/28 06:33:56;;;;;;;9.03;7.40;;;;;;;28.73;44.38;100928.75;5034048;28;20394;-68
2022/07/28 06:36:21;;;;;;;10.33;7.40;;;;;;;28.71;44.58;100938.34;5032001;28;20393;-61
2022/07/28 06:38:47;;;;;;;10.80;7.82;;;;;;;28.82;44.75;100933.59;5016353;28;20403;-65
2022/07/28 06:41:13;;;;;;;9.00;7.50;;;;;;;29.23;43.78;100928.56;5030681;28;20417;-66
2022/07/28 06:45:32;;;;;;;9.40;7.93;;;;;;;29.29;44.04;100948.41;5073126;27;2074133;-67
2022/07/28 06:47:57;;;;;;;12.37;7.90;;;;;;;29.53;43.59;100946.50;5127063;28;20877;-67
2022/07/28 06:50:23;;;;;;;16.20;8.20;;;;;;;29.81;42.84;100960.38;5127771;28;20374;-68
2022/07/28 06:52:48;;;;;;;10.00;8.90;;;;;;;29.62;43.16;100954.88;5127863;28;20384;-67
2022/07/28 06:55:15;;;;;;;12.35;8.88;;;;;;;29.48;43.50;100965.69;5108591;28;20390;-67
2022/07/28 06:57:42;;;;;;;10.53;8.70;;;;;;;29.38;43.72;100964.97;5126423;28;20372;-68
2022/07/28 07:00:10;;;;;;;11.18;8.65;;;;;;;29.34;44.15;100967.47;5127309;28;20722;-67
2022/07/28 07:02:40;;;;;;;13.57;8.77;;;;;;;29.30;43.98;100958.25;5127315;28;20386;-67
2022/07/28 07:05:07;;;;;;;11.18;8.65;;;;;;;29.38;43.95;100963.06;5126096;28;20908;-68
2022/07/28 07:07:33;;;;;;;10.75;8.18;;;;;;;29.42;43.90;100969.56;5126762;28;20462;-67
2022/07/28 07:09:58;;;;;;;9.35;8.38;;;;;;;29.27;44.01;100959.63;5127066;28;20837;-67
2022/07/28 07:12:24;;;;;;;8.80;7.83;;;;;;;29.18;44.39;100966.81;5127263;28;20386;-67
2022/07/28 07:14:49;;;;;;;9.77;8.00;;;;;;;29.16;44.11;100967.13;5114579;28;20427;-68
2022/07/28 07:17:15;;;;;;;10.67;7.27;;;;;;;29.21;43.91;100955.34;5127031;28;20378;-67
2022/07/28 07:19:40;;;;;;;11.57;7.30;;;;;;;29.45;43.86;100974.44;5127104;28;20371;-66
2022/07/28 07:22:06;;;;;;;8.40;7.60;;;;;;;29.27;44.26;100964.28;5127317;28;20432;-66
2022/07/28 07:24:31;;;;;;;8.88;7.28;;;;;;;29.25;44.70;100967.28;5126747;28;20410;-66
2022/07/28 07:26:57;;;;;;;11.07;7.73;;;;;;;29.44;44.47;100969.28;5127029;28;20868;-67
2022/07/28 07:29:23;;;;;;;11.07;7.87;;;;;;;29.56;44.52;100975.13;5126878;27;20387;-67
2022/07/28 07:31:49;;;;;;;10.07;7.20;;;;;;;29.66;44.27;100969.56;5127045;28;20397;-67
2022/07/28 07:34:15;;;;;;;9.98;8.50;;;;;;;29.59;44.46;100966.38;5127016;27;20859;-67
2022/07/28 07:36:40;;;;;;;10.27;7.57;;;;;;;29.42;45.04;100966.03;5127395;28;20385;-66
2022/07/28 07:39:06;;;;;;;10.57;8.07;;;;;;;29.53;44.87;100972.97;5126481;28;20552;-67
2022/07/28 07:41:31;;;;;;;9.93;8.40;;;;;;;29.63;44.66;100975.59;5126582;28;20385;-68
2022/07/28 07:43:57;;;;;;;8.90;8.03;;;;;;;29.83;44.39;100968.28;5126521;28;20422;-67
2022/07/28 07:46:22;;;;;;;11.60;7.50;;;;;;;30.08;43.53;100973.38;5126178;28;20896;-66
2022/07/28 07:48:48;;;;;;;8.00;7.30;;;;;;;30.33;43.46;100976.88;5127046;28;20379;-67
2022/07/28 07:51:13;;;;;;;9.45;7.88;;;;;;;30.73;42.16;100987.47;5126781;28;20418;-66
2022/07/28 07:53:39;;;;;;;10.67;7.80;;;;;;;30.68;41.73;100980.16;5126272;28;20374;-67
2022/07/28 07:56:04;;;;;;;9.30;6.93;;;;;;;30.82;41.69;100972.00;5117694;28;20391;-66
2022/07/28 07:58:30;;;;;;;9.27;7.67;;;;;;;30.68;42.18;100978.25;5112593;28;20383;-67
2022/07/28 08:00:55;;;;;;;8.67;7.03;;;;;;;30.77;41.73;100988.50;5112727;28;20391;-67
2022/07/28 08:03:21;;;;;;;10.13;6.93;;;;;;;30.69;41.08;100982.59;5112246;28;20448;-67
2022/07/28 08:05:48;;;;;;;8.10;7.30;;;;;;;30.72;41.58;100980.38;5112238;28;20830;-67
2022/07/28 08:08:15;;;;;;;9.40;7.60;;;;;;;30.87;41.26;100977.38;5112372;28;20384;-67
2022/07/28 08:10:41;;;;;;;8.43;7.55;;;;;;;30.92;41.22;100971.84;5112422;28;20448;-66
2022/07/28 08:13:07;;;;;;;9.73;7.85;;;;;;;31.03;41.37;100969.75;5112166;28;20758;-68
2022/07/28 08:15:33;;;;;;;9.43;7.40;;;;;;;31.12;41.75;100975.34;5112486;28;20387;-67
2022/07/28 08:18:02;;;;;;;9.07;8.07;;;;;;;31.30;41.42;100977.19;5112119;28;20415;-68
2022/07/28 08:20:28;;;;;;;8.60;7.20;;;;;;;31.46;40.20;100985.91;5112340;28;20412;-67
2022/07/28 08:22:56;;;;;;;8.30;7.25;;;;;;;31.73;39.44;100982.38;5112071;28;20406;-67
2022/07/28 08:25:23;;;;;;;9.90;7.00;;;;;;;31.94;39.37;100976.44;5112378;28;20498;-67
2022/07/28 08:27:49;;;;;;;7.80;7.10;;;;;;;32.02;39.10;100970.22;5111764;28;20368;-67
2022/07/28 08:30:18;;;;;;;8.50;7.20;;;;;;;32.19;38.77;100978.63;5112157;28;20469;-67
2022/07/28 08:32:43;;;;;;;10.57;7.30;;;;;;;32.17;38.88;100971.81;5111545;28;20812;-66
2022/07/28 08:35:09;;;;;;;8.25;6.90;;;;;;;32.01;38.87;100974.88;5111959;28;20475;-67
2022/07/28 08:37:36;;;;;;;6.57;5.87;;;;;;;31.94;38.15;100976.44;5112120;28;20379;-66
2022/07/28 08:40:03;;;;;;;6.33;5.73;;;;;;;32.21;37.11;100981.06;5111939;28;20892;-67
2022/07/28 08:42:37;;;;;;;6.50;5.90;;;;;;;32.43;36.97;100976.69;5112194;28;20407;-67
2022/07/28 08:45:06;;;;;;;8.53;6.17;;;;;;;32.54;36.82;100978.09;5111878;28;20411;-68
2022/07/28 08:48:09;;;;;;;6.68;5.90;;;;;;;32.71;36.41;100980.16;5035846;28;20825;-67
2022/07/28 08:50:36;;;;;;;7.68;5.75;;;;;;;32.71;36.49;100991.94;5046963;28;20463;-67
2022/07/28 08:53:51;;;;;;;6.88;6.15;;;;;;;32.53;36.80;100974.53;5059347;28;20409;-66
2022/07/28 08:56:18;;;;;;;6.82;6.22;;;;;;;32.69;36.37;100971.44;5046555;28;20456;-67
2022/07/28 08:58:43;;;;;;;7.20;6.32;;;;;;;32.56;37.31;100970.34;5046806;28;20382;-67
2022/07/28 09:01:09;;;;;;;7.13;6.20;;;;;;;32.16;38.06;100957.31;5036142;28;20865;-66
2022/07/28 09:03:36;;;;;;;7.40;6.63;;;;;;;32.20;37.79;100976.69;5043689;28;20417;-66
2022/07/28 09:06:02;;;;;;;7.80;6.30;;;;;;;32.10;38.64;100988.69;5031329;28;20439;-67
2022/07/28 09:08:27;;;;;;;7.00;6.30;;;;;;;32.09;38.49;100986.25;5035365;28;20383;-67
2022/07/28 09:10:53;;;;;;;7.17;6.47;;;;;;;32.08;38.30;100984.66;5043276;28;20473;-66
2022/07/28 09:13:19;;;;;;;7.03;6.13;;;;;;;32.13;38.02;100976.31;5046379;28;20409;-67
2022/07/28 09:18:09;;;;;;;6.15;5.60;;;;;;;31.94;37.37;100982.72;5092367;27;20404;-66
2022/07/28 09:20:35;;;;;;;6.10;5.50;;;;;;;32.08;37.13;100988.22;5054232;28;20513;-67
2022/07/28 09:23:05;;;;;;;6.50;5.90;;;;;;;31.97;36.90;100984.03;5065923;28;20834;-66
2022/07/28 09:25:32;;;;;;;5.85;5.22;;;;;;;31.90;36.88;100980.91;5066907;28;20387;-67
2022/07/28 09:28:17;;;;;;;5.88;5.28;;;;;;;31.80;36.85;100981.94;5066267;28;20407;-67
2022/07/28 09:30:45;;;;;;;7.15;5.47;;;;;;;31.80;37.41;100985.50;5066674;28;20380;-66
2022/07/28 09:33:22;;;;;;;6.53;5.45;;;;;;;31.71;38.02;100981.03;5066150;28;20738;-66
2022/07/28 09:35:49;;;;;;;5.78;5.30;;;;;;;31.60;37.92;100977.69;5066386;28;20801;-67
2022/07/28 09:38:18;;;;;;;6.50;5.53;;;;;;;31.76;37.17;100972.69;5066335;28;20394;-66
2022/07/28 09:40:58;;;;;;;6.85;5.70;;;;;;;31.66;37.57;100984.72;5066269;28;20470;-66
2022/07/28 09:43:42;;;;;;;6.15;5.60;;;;;;;31.44;38.37;100971.72;5066028;28;20392;-66
2022/07/28 09:46:11;;;;;;;7.68;6.22;;;;;;;31.50;38.40;100970.50;5053299;28;20396;-67
2022/07/28 09:48:49;;;;;;;7.17;4.80;;;;;;;31.61;37.33;100968.38;5065729;28;20372;-67
2022/07/28 09:51:17;;;;;;;7.95;4.63;;;;;;;31.56;36.55;100982.16;5066435;28;20400;-67
2022/07/28 09:53:44;;;;;;;6.85;4.85;;;;;;;31.61;36.76;100985.63;5065966;28;20376;-67
2022/07/28 09:56:10;;;;;;;6.47;4.60;;;;;;;31.74;36.67;100988.66;5065943;28;20865;-67
2022/07/28 09:58:37;;;;;;;6.05;4.90;;;;;;;31.95;36.10;100989.03;5052092;28;20387;-66
2022/07/28 10:01:12;;;;;;;6.28;4.70;;;;;;;31.77;36.46;100990.78;5066129;28;20474;-66
2022/07/28 10:03:41;;;;;;;5.28;4.35;;;;;;;31.54;35.99;100990.69;5065612;28;20390;-67
2022/07/28 10:06:13;;;;;;;6.32;4.65;;;;;;;31.65;36.33;100987.75;5051567;28;20940;-66
2022/07/28 10:08:41;;;;;;;7.00;4.57;;;;;;;31.67;36.30;100972.59;5094884;28;20400;-67
2022/07/28 10:11:08;;;;;;;5.03;4.47;;;;;;;31.72;35.62;100982.66;5098352;28;20403;-66
2022/07/28 10:13:34;;;;;;;4.85;4.43;;;;;;;31.81;35.70;100980.81;5065481;28;20379;-67
2022/07/28 10:16:12;;;;;;;5.70;4.32;;;;;;;31.94;35.46;100990.13;5065294;28;20392;-68
2022/07/28 10:18:39;;;;;;;4.40;4.00;;;;;;;31.95;35.04;100980.81;5063754;28;20431;-67
2022/07/28 10:23:11;;;;;;;5.00;4.43;;;;;;;32.39;33.57;100982.84;5049894;27;2335604;-67
2022/07/28 10:25:38;;;;;;;5.45;4.28;;;;;;;32.47;32.93;100977.72;5115130;28;20401;-67
2022/07/28 10:28:05;;;;;;;4.60;4.20;;;;;;;32.40;33.90;100986.38;5122252;28;20390;-67
2022/07/28 10:30:36;;;;;;;6.07;4.70;;;;;;;32.44;33.69;100970.09;5088842;28;20378;-68
2022/07/28 10:33:06;;;;;;;5.20;4.70;;;;;;;32.25;33.72;100979.34;5119804;28;20903;-67
2022/07/28 10:35:32;;;;;;;5.43;4.93;;;;;;;32.18;34.02;100981.69;5118683;28;22260;-67
2022/07/28 10:38:07;;;;;;;6.57;4.75;;;;;;;32.04;34.19;100973.50;5114845;28;20439;-66
2022/07/28 10:40:43;;;;;;;6.60;4.65;;;;;;;31.93;34.33;100972.06;5116884;28;20397;-67
2022/07/28 10:43:10;;;;;;;5.90;4.93;;;;;;;31.85;34.80;100979.09;5112167;28;20437;-66
2022/07/28 10:45:36;;;;;;;6.55;5.13;;;;;;;31.79;35.48;100975.66;5115032;28;20419;-66
2022/07/28 10:48:04;;;;;;;5.95;5.15;;;;;;;31.82;35.76;100977.78;5111006;28;20427;-67
2022/07/28 10:50:30;;;;;;;7.63;4.78;;;;;;;31.85;35.67;100968.13;5109628;28;20416;-66
2022/07/28 10:52:57;;;;;;;5.82;4.93;;;;;;;31.96;35.24;100968.69;5126886;28;20423;-67
2022/07/28 10:55:43;;;;;;;8.25;4.88;;;;;;;31.86;35.40;100958.78;5113993;28;20797;-66
2022/07/28 10:58:30;;;;;;;7.10;5.10;;;;;;;31.83;35.42;100962.94;5106865;28;20380;-66
2022/07/28 11:00:56;;;;;;;5.55;5.05;;;;;;;31.86;35.67;100961.53;5106419;28;20409;-68
2022/07/28 11:03:45;;;;;;;5.70;5.20;;;;;;;31.76;35.56;100951.56;5108653;28;20813;-67
2022/07/28 11:06:33;;;;;;;6.13;5.10;;;;;;;31.82;35.85;100950.38;5112606;28;20395;-65
2022/07/28 11:09:17;;;;;;;8.77;5.40;;;;;;;32.03;35.16;100938.13;5112707;28;20373;-66
2022/07/28 11:11:50;;;;;;;7.22;5.00;;;;;;;32.22;35.34;100958.00;5111444;28;20377;-66
2022/07/28 11:14:21;;;;;;;5.50;5.10;;;;;;;32.16;35.36;100949.09;5109241;28;20403;-66
2022/07/28 11:16:47;;;;;;;5.57;5.07;;;;;;;32.23;35.55;100948.63;5113087;28;20430;-65
2022/07/28 11:19:15;;;;;;;7.00;5.10;;;;;;;32.17;35.58;100952.63;5109519;28;20376;-66
2022/07/28 11:22:20;;;;;;;7.32;4.80;;;;;;;32.04;35.57;100953.50;5107490;28;20452;-66
2022/07/28 11:25:00;;;;;;;5.47;4.97;;;;;;;31.86;36.08;100950.56;5106466;28;20380;-66
2022/07/28 11:28:03;;;;;;;5.85;5.25;;;;;;;31.78;36.43;100952.09;5105538;28;20793;-65
2022/07/28 11:30:31;;;;;;;6.60;5.10;;;;;;;31.71;36.45;100943.50;5028688;28;20391;-66
2022/07/28 11:33:01;;;;;;;8.45;5.15;;;;;;;31.83;36.18;100938.25;5093695;28;21001;-66
2022/07/28 11:35:51;;;;;;;8.13;5.03;;;;;;;31.85;35.53;100939.91;5099806;28;20530;-65
2022/07/28 11:38:17;;;;;;;5.55;4.95;;;;;;;32.00;35.85;100934.88;5103648;28;20532;-67
2022/07/28 11:40:45;;;;;;;5.07;4.67;;;;;;;32.17;35.66;100941.66;5103372;28;20463;-66
2022/07/28 11:43:22;;;;;;;8.77;4.90;;;;;;;32.12;35.15;100939.03;5109313;28;20431;-66
2022/07/28 11:46:00;;;;;;;8.23;5.20;;;;;;;32.24;35.11;100935.75;5109097;28;20407;-66
2022/07/28 11:50:11;;;;;;;5.80;4.85;;;;;;;32.41;35.15;100932.31;5069224;27;2035611;-66
2022/07/28 11:52:39;;;;;;;6.35;4.80;;;;;;;32.54;34.72;100942.41;5114631;27;20471;-66
2022/07/28 11:55:07;;;;;;;5.72;4.95;;;;;;;32.58;34.54;100930.53;5111765;27;20383;-66
2022/07/28 11:57:40;;;;;;;5.22;4.72;;;;;;;32.54;34.32;100937.72;5123472;27;20381;-66
2022/07/28 12:00:06;;;;;;;8.48;5.10;;;;;;;32.27;34.66;100926.88;5127298;27;20464;-67
2022/07/28 12:02:33;;;;;;;6.43;4.95;;;;;;;32.30;34.64;100926.25;5131871;27;20373;-68